Time,TemperatureF,DewpointF,PressureIn,WindDirection,WindDirectionDegrees,WindSpeedMPH,WindSpeedGustMPH,Humidity,HourlyPrecipIn,Conditions,Clouds,dailyrainin,SoftwareType,DateUTC
2013-09-25 00:12:00,58.8,52.0,29.91,SE,129,2.0,9.0,77,0.00,,,0.00,weatherlink.com 1.10,2013-09-25 05:12:00,
2013-09-25 00:27:00,57.9,51.0,29.91,ESE,114,1.0,6.0,79,0.00,,,0.00,weatherlink.com 1.10,2013-09-25 05:27:00,
2013-09-25 00:42:00,57.2,51.0,29.91,ESE,113,4.0,8.0,81,0.00,,,0.00,weatherlink.com 1.10,2013-09-25 05:42:00,
2013-09-25 00:57:00,56.6,51.0,29.91,East,92,5.0,8.0,82,0.00,,,0.00,weatherlink.com 1.10,2013-09-25 05:57:00,
2013-09-25 01:12:00,56.1,51.0,29.91,ESE,106,6.0,10.0,83,0.00,,,0.00,weatherlink.com 1.10,2013-09-25 06:12:00,
2013-09-25 01:27:00,55.9,51.0,29.91,East,96,5.0,8.0,84,0.00,,,0.00,weatherlink.com 1.10,2013-09-25 06:27:00,
2013-09-25 01:42:00,55.6,51.0,29.91,East,94,6.0,10.0,85,0.00,,,0.00,weatherlink.com 1.10,2013-09-25 06:42:00,
2013-09-25 01:57:00,55.3,51.0,29.91,East,94,6.0,10.0,85,0.00,,,0.00,weatherlink.com 1.10,2013-09-25 06:57:00,
2013-09-25 02:12:00,55.1,51.0,29.91,ESE,112,4.0,10.0,86,0.00,,,0.00,weatherlink.com 1.10,2013-09-25 07:12:00,
2013-09-25 02:27:00,54.8,51.0,29.90,ESE,120,6.0,9.0,86,0.00,,,0.00,weatherlink.com 1.10,2013-09-25 07:27:00,
2013-09-25 02:42:00,54.5,51.0,29.90,East,99,3.0,10.0,87,0.00,,,0.00,weatherlink.com 1.10,2013-09-25 07:42:00,
2013-09-25 02:57:00,54.2,51.0,29.90,ESE,104,6.0,9.0,88,0.00,,,0.00,weatherlink.com 1.10,2013-09-25 07:57:00,
2013-09-25 03:12:00,54.0,51.0,29.90,ESE,112,6.0,9.0,88,0.00,,,0.00,weatherlink.com 1.10,2013-09-25 08:12:00,
2013-09-25 03:27:00,54.0,51.0,29.90,East,94,7.0,10.0,88,0.00,,,0.00,weatherlink.com 1.10,2013-09-25 08:27:00,
2013-09-25 03:42:00,53.8,51.0,29.89,ENE,74,6.0,9.0,89,0.00,,,0.00,weatherlink.com 1.10,2013-09-25 08:42:00,
2013-09-25 03:57:00,53.7,51.0,29.89,ESE,106,5.0,10.0,89,0.00,,,0.00,weatherlink.com 1.10,2013-09-25 08:57:00,
2013-09-25 04:12:00,53.5,50.0,29.89,ENE,73,7.0,9.0,89,0.00,,,0.00,weatherlink.com 1.10,2013-09-25 09:12:00,
2013-09-25 04:27:00,53.6,51.0,29.89,SE,127,4.0,10.0,90,0.00,,,0.00,weatherlink.com 1.10,2013-09-25 09:27:00,
2013-09-25 04:42:00,53.5,51.0,29.89,East,96,8.0,11.0,90,0.00,,,0.00,weatherlink.com 1.10,2013-09-25 09:42:00,
2013-09-25 04:57:00,53.3,51.0,29.89,ESE,102,6.0,9.0,90,0.00,,,0.00,weatherlink.com 1.10,2013-09-25 09:57:00,
2013-09-25 05:12:00,53.2,51.0,29.89,East,101,4.0,8.0,91,0.00,,,0.00,weatherlink.com 1.10,2013-09-25 10:12:00,
2013-09-25 05:28:00,53.1,51.0,29.89,East,96,4.0,9.0,91,0.00,,,0.00,weatherlink.com 1.10,2013-09-25 10:28:00,
2013-09-25 05:43:00,53.0,51.0,29.89,East,89,6.0,10.0,91,0.00,,,0.00,weatherlink.com 1.10,2013-09-25 10:43:00,
2013-09-25 05:58:00,53.0,51.0,29.90,ESE,116,9.0,10.0,91,0.00,,,0.00,weatherlink.com 1.10,2013-09-25 10:58:00,
2013-09-25 06:13:00,53.3,51.0,29.90,East,93,5.0,11.0,91,0.00,,,0.00,weatherlink.com 1.10,2013-09-25 11:13:00,
2013-09-25 06:28:00,53.0,51.0,29.90,ESE,104,4.0,9.0,91,0.00,,,0.00,weatherlink.com 1.10,2013-09-25 11:28:00,
2013-09-25 06:43:00,52.9,50.0,29.91,East,96,5.0,10.0,91,0.00,,,0.00,weatherlink.com 1.10,2013-09-25 11:43:00,
2013-09-25 06:58:00,52.9,50.0,29.92,East,89,8.0,10.0,91,0.00,,,0.00,weatherlink.com 1.10,2013-09-25 11:58:00,
2013-09-25 07:13:00,53.0,51.0,29.92,ESE,104,4.0,10.0,91,0.00,,,0.00,weatherlink.com 1.10,2013-09-25 12:13:00,
2013-09-25 07:28:00,53.1,51.0,29.92,East,88,7.0,12.0,91,0.00,,,0.00,weatherlink.com 1.10,2013-09-25 12:28:00,
2013-09-25 07:43:00,53.2,51.0,29.92,East,86,6.0,11.0,92,0.00,,,0.00,weatherlink.com 1.10,2013-09-25 12:43:00,
2013-09-25 07:58:00,53.9,51.0,29.92,ESE,109,8.0,12.0,91,0.00,,,0.00,weatherlink.com 1.10,2013-09-25 12:58:00,
2013-09-25 08:13:00,54.3,52.0,29.92,East,94,7.0,12.0,90,0.00,,,0.00,weatherlink.com 1.10,2013-09-25 13:13:00,
2013-09-25 08:28:00,55.2,52.0,29.93,East,92,4.0,11.0,89,0.00,,,0.00,weatherlink.com 1.10,2013-09-25 13:28:00,
2013-09-25 08:43:00,55.9,52.0,29.93,ESE,108,7.0,9.0,87,0.00,,,0.00,weatherlink.com 1.10,2013-09-25 13:43:00,
2013-09-25 08:58:00,57.0,53.0,29.93,ESE,104,4.0,10.0,86,0.00,,,0.00,weatherlink.com 1.10,2013-09-25 13:58:00,
2013-09-25 09:13:00,58.4,53.0,29.93,East,97,7.0,10.0,82,0.00,,,0.00,weatherlink.com 1.10,2013-09-25 14:13:00,
2013-09-25 09:28:00,59.5,53.0,29.93,ESE,111,8.0,11.0,80,0.00,,,0.00,weatherlink.com 1.10,2013-09-25 14:28:00,
2013-09-25 09:43:00,61.2,54.0,29.94,East,100,7.0,8.0,76,0.00,,,0.00,weatherlink.com 1.10,2013-09-25 14:43:00,
2013-09-25 09:58:00,62.8,54.0,29.94,SSE,153,3.0,6.0,72,0.00,,,0.00,weatherlink.com 1.10,2013-09-25 14:58:00,
2013-09-25 10:13:00,63.1,52.0,29.94,ESE,108,2.0,7.0,68,0.00,,,0.00,weatherlink.com 1.10,2013-09-25 15:13:00,
2013-09-25 10:28:00,64.7,53.0,29.94,SE,144,4.0,7.0,65,0.00,,,0.00,weatherlink.com 1.10,2013-09-25 15:28:00,
2013-09-25 10:43:00,65.6,52.0,29.94,SE,132,4.0,8.0,62,0.00,,,0.00,weatherlink.com 1.10,2013-09-25 15:43:00,
2013-09-25 10:58:00,66.6,53.0,29.95,ESE,106,3.0,8.0,61,0.00,,,0.00,weatherlink.com 1.10,2013-09-25 15:58:00,
2013-09-25 11:13:00,68.1,53.0,29.95,ENE,75,3.0,6.0,58,0.00,,,0.00,weatherlink.com 1.10,2013-09-25 16:13:00,
2013-09-25 11:28:00,68.8,52.0,29.94,ESE,113,6.0,9.0,56,0.00,,,0.00,weatherlink.com 1.10,2013-09-25 16:28:00,
2013-09-25 11:43:00,69.4,52.0,29.94,ENE,71,6.0,10.0,55,0.00,,,0.00,weatherlink.com 1.10,2013-09-25 16:43:00,
2013-09-25 11:58:00,69.9,53.0,29.93,SSE,149,3.0,11.0,55,0.00,,,0.00,weatherlink.com 1.10,2013-09-25 16:58:00,
2013-09-25 12:14:00,70.3,52.0,29.93,ESE,105,11.0,11.0,53,0.00,,,0.00,weatherlink.com 1.10,2013-09-25 17:14:00,
2013-09-25 12:29:00,70.6,53.0,29.92,ENE,62,5.0,10.0,54,0.00,,,0.00,weatherlink.com 1.10,2013-09-25 17:29:00,
2013-09-25 12:44:00,71.8,53.0,29.92,SE,129,5.0,9.0,52,0.00,,,0.00,weatherlink.com 1.10,2013-09-25 17:44:00,
2013-09-25 12:59:00,72.1,52.0,29.91,ESE,113,6.0,10.0,50,0.00,,,0.00,weatherlink.com 1.10,2013-09-25 17:59:00,
2013-09-25 13:14:00,72.8,53.0,29.91,ENE,65,3.0,7.0,50,0.00,,,0.00,weatherlink.com 1.10,2013-09-25 18:14:00,
2013-09-25 13:29:00,73.2,53.0,29.90,East,90,5.0,10.0,50,0.00,,,0.00,weatherlink.com 1.10,2013-09-25 18:29:00,
2013-09-25 13:44:00,74.0,53.0,29.90,SSE,158,6.0,8.0,48,0.00,,,0.00,weatherlink.com 1.10,2013-09-25 18:44:00,
2013-09-25 13:59:00,74.7,53.0,29.89,SW,228,0.0,6.0,47,0.00,,,0.00,weatherlink.com 1.10,2013-09-25 18:59:00,
2013-09-25 14:14:00,75.1,53.0,29.89,ESE,117,3.0,7.0,46,0.00,,,0.00,weatherlink.com 1.10,2013-09-25 19:14:00,
2013-09-25 14:29:00,76.1,53.0,29.88,SW,228,4.0,7.0,44,0.00,,,0.00,weatherlink.com 1.10,2013-09-25 19:29:00,
2013-09-25 14:44:00,76.3,53.0,29.88,NW,305,1.0,8.0,45,0.00,,,0.00,weatherlink.com 1.10,2013-09-25 19:44:00,
2013-09-25 14:59:00,76.6,54.0,29.88,East,96,3.0,5.0,45,0.00,,,0.00,weatherlink.com 1.10,2013-09-25 19:59:00,
2013-09-25 15:14:00,76.6,54.0,29.88,SSW,198,2.0,5.0,46,0.00,,,0.00,weatherlink.com 1.10,2013-09-25 20:14:00,
2013-09-25 15:29:00,76.7,54.0,29.87,South,179,2.0,6.0,45,0.00,,,0.00,weatherlink.com 1.10,2013-09-25 20:29:00,
2013-09-25 15:44:00,76.2,53.0,29.87,SSE,153,1.0,8.0,44,0.00,,,0.00,weatherlink.com 1.10,2013-09-25 20:44:00,
2013-09-25 15:59:00,77.2,54.0,29.87,ESE,120,2.0,6.0,44,0.00,,,0.00,weatherlink.com 1.10,2013-09-25 20:59:00,
2013-09-25 16:14:00,76.6,53.0,29.87,South,184,5.0,8.0,44,0.00,,,0.00,weatherlink.com 1.10,2013-09-25 21:14:00,
2013-09-25 16:29:00,76.8,52.0,29.87,SSW,205,0.0,7.0,42,0.00,,,0.00,weatherlink.com 1.10,2013-09-25 21:29:00,
2013-09-25 16:45:00,77.1,53.0,29.87,ESE,106,3.0,8.0,44,0.00,,,0.00,weatherlink.com 1.10,2013-09-25 21:45:00,
2013-09-25 16:59:00,77.4,53.0,29.87,East,96,0.0,4.0,43,0.00,,,0.00,weatherlink.com 1.10,2013-09-25 21:59:00,
2013-09-25 17:14:00,77.0,51.0,29.87,ESE,123,3.0,6.0,41,0.00,,,0.00,weatherlink.com 1.10,2013-09-25 22:14:00,
2013-09-25 17:29:00,76.5,52.0,29.87,SSE,148,0.0,7.0,43,0.00,,,0.00,weatherlink.com 1.10,2013-09-25 22:29:00,
2013-09-25 17:44:00,76.4,52.0,29.87,SE,125,3.0,4.0,43,0.00,,,0.00,weatherlink.com 1.10,2013-09-25 22:44:00,
2013-09-25 17:59:00,75.9,53.0,29.88,SSE,151,2.0,5.0,45,0.00,,,0.00,weatherlink.com 1.10,2013-09-25 22:59:00,
2013-09-25 18:14:00,75.5,53.0,29.87,NE,49,0.0,3.0,46,0.00,,,0.00,weatherlink.com 1.10,2013-09-25 23:14:00,
2013-09-25 18:29:00,74.2,54.0,29.87,East,96,3.0,5.0,49,0.00,,,0.00,weatherlink.com 1.10,2013-09-25 23:29:00,
2013-09-25 18:44:00,72.9,54.0,29.87,East,101,3.0,4.0,51,0.00,,,0.00,weatherlink.com 1.10,2013-09-25 23:44:00,
2013-09-25 18:59:00,71.5,53.0,29.87,ESE,119,2.0,4.0,53,0.00,,,0.00,weatherlink.com 1.10,2013-09-25 23:59:00,
2013-09-25 19:14:00,70.4,53.0,29.88,East,99,2.0,4.0,55,0.00,,,0.00,weatherlink.com 1.10,2013-09-26 00:14:00,
2013-09-25 19:29:00,69.7,54.0,29.88,ESE,105,2.0,4.0,57,0.00,,,0.00,weatherlink.com 1.10,2013-09-26 00:29:00,
2013-09-25 19:44:00,69.0,53.0,29.88,ESE,109,2.0,4.0,58,0.00,,,0.00,weatherlink.com 1.10,2013-09-26 00:44:00,
2013-09-25 19:59:00,68.3,53.0,29.88,SE,146,2.0,4.0,59,0.00,,,0.00,weatherlink.com 1.10,2013-09-26 00:59:00,
2013-09-25 20:14:00,67.5,53.0,29.89,ESE,115,1.0,4.0,61,0.00,,,0.00,weatherlink.com 1.10,2013-09-26 01:14:00,
2013-09-25 20:29:00,66.6,53.0,29.88,ESE,110,2.0,4.0,63,0.00,,,0.00,weatherlink.com 1.10,2013-09-26 01:29:00,
2013-09-25 20:44:00,66.2,53.0,29.88,ESE,117,2.0,5.0,63,0.00,,,0.00,weatherlink.com 1.10,2013-09-26 01:44:00,
2013-09-25 20:59:00,65.8,52.0,29.88,ESE,121,7.0,7.0,62,0.00,,,0.00,weatherlink.com 1.10,2013-09-26 01:59:00,
2013-09-25 21:14:00,65.1,52.0,29.89,ESE,104,2.0,7.0,62,0.00,,,0.00,weatherlink.com 1.10,2013-09-26 02:14:00,
2013-09-25 21:29:00,64.3,51.0,29.89,SE,126,4.0,8.0,63,0.00,,,0.00,weatherlink.com 1.10,2013-09-26 02:29:00,
2013-09-25 21:44:00,63.7,51.0,29.90,SSE,160,3.0,9.0,64,0.00,,,0.00,weatherlink.com 1.10,2013-09-26 02:44:00,
2013-09-25 21:59:00,62.8,52.0,29.90,ESE,123,9.0,10.0,67,0.00,,,0.00,weatherlink.com 1.10,2013-09-26 02:59:00,
2013-09-25 22:14:00,61.9,52.0,29.90,SE,130,8.0,10.0,69,0.00,,,0.00,weatherlink.com 1.10,2013-09-26 03:14:00,
2013-09-25 22:29:00,60.9,51.0,29.90,SE,143,4.0,13.0,71,0.00,,,0.00,weatherlink.com 1.10,2013-09-26 03:29:00,
2013-09-25 22:44:00,60.1,51.0,29.90,ESE,112,4.0,11.0,73,0.00,,,0.00,weatherlink.com 1.10,2013-09-26 03:44:00,
2013-09-25 22:59:00,59.7,52.0,29.91,SE,138,5.0,9.0,75,0.00,,,0.00,weatherlink.com 1.10,2013-09-26 03:59:00,
2013-09-25 23:14:00,59.2,52.0,29.91,ESE,113,5.0,9.0,76,0.00,,,0.00,weatherlink.com 1.10,2013-09-26 04:14:00,
2013-09-25 23:29:00,58.5,52.0,29.91,SE,138,5.0,10.0,78,0.00,,,0.00,weatherlink.com 1.10,2013-09-26 04:29:00,
2013-09-25 23:44:00,58.1,52.0,29.92,SE,137,8.0,9.0,79,0.00,,,0.00,weatherlink.com 1.10,2013-09-26 04:44:00,
2013-09-25 23:59:00,57.7,52.0,29.92,SE,132,7.0,11.0,80,0.00,,,0.00,weatherlink.com 1.10,2013-09-26 04:59:00,